createdAt,value
2022-08-26T00:01:29.983Z,24.40
2022-08-26T00:03:56.993Z,24.34
2022-08-26T00:06:26.270Z,24.28
2022-08-26T00:08:53.362Z,24.32
2022-08-26T00:11:26.854Z,24.34
2022-08-26T00:13:57.674Z,24.22
2022-08-26T00:16:28.126Z,24.20
2022-08-26T00:18:56.040Z,24.23
2022-08-26T00:21:22.810Z,24.23
2022-08-26T00:23:50.429Z,24.22
2022-08-26T00:26:17.245Z,24.16
2022-08-26T00:28:44.467Z,24.19
2022-08-26T00:31:11.486Z,24.13
2022-08-26T00:33:39.710Z,24.14
2022-08-26T00:36:09.365Z,24.12
2022-08-26T00:38:46.589Z,24.16
2022-08-26T00:41:13.729Z,24.17
2022-08-26T00:43:47.446Z,24.17
2022-08-26T00:46:20.557Z,24.09
2022-08-26T00:48:48.141Z,23.64
2022-08-26T00:51:24.414Z,23.96
2022-08-26T00:54:06.045Z,23.98
2022-08-26T00:56:44.545Z,23.83
2022-08-26T00:59:14.332Z,24.01
2022-08-26T01:01:44.218Z,24.04
2022-08-26T01:04:15.540Z,23.99
2022-08-26T01:06:42.546Z,23.99
2022-08-26T01:09:11.822Z,23.93
2022-08-26T01:11:38.914Z,23.94
2022-08-26T01:14:06.889Z,23.94
2022-08-26T01:17:01.330Z,23.65
2022-08-26T01:19:37.625Z,23.85
2022-08-26T01:22:11.357Z,23.77
2022-08-26T01:24:38.882Z,23.82
2022-08-26T01:27:08.794Z,23.81
2022-08-26T01:29:36.783Z,23.85
2022-08-26T01:32:05.106Z,23.87
2022-08-26T01:34:36.167Z,23.80
2022-08-26T01:37:05.383Z,23.91
2022-08-26T01:39:33.771Z,23.88
2022-08-26T01:42:03.227Z,23.90
2022-08-26T01:44:34.513Z,23.80
2022-08-26T01:47:02.010Z,23.80
2022-08-26T01:49:35.729Z,23.69
2022-08-26T01:52:03.605Z,23.71
2022-08-26T01:54:31.135Z,23.66
2022-08-26T01:56:58.758Z,23.70
2022-08-26T01:59:25.573Z,23.69
2022-08-26T02:01:53.141Z,23.58
2022-08-26T02:04:29.564Z,23.42
2022-08-26T02:06:57.204Z,23.55
2022-08-26T02:09:26.785Z,23.51
2022-08-26T02:11:53.722Z,23.54
2022-08-26T02:14:27.074Z,23.34
2022-08-26T02:16:55.122Z,23.53
2022-08-26T02:19:31.381Z,23.57
2022-08-26T02:22:00.538Z,23.53
2022-08-26T02:24:30.252Z,23.48
2022-08-26T02:26:58.117Z,23.47
2022-08-26T02:29:36.324Z,23.38
2022-08-26T02:32:10.081Z,23.40
2022-08-26T02:34:37.653Z,23.44
2022-08-26T02:37:07.349Z,23.46
2022-08-26T02:39:35.378Z,23.45
2022-08-26T02:42:02.277Z,23.44
2022-08-26T02:44:29.134Z,23.45
2022-08-26T02:46:56.043Z,23.36
2022-08-26T02:49:27.438Z,23.22
2022-08-26T02:51:54.342Z,23.28
2022-08-26T02:54:21.466Z,23.30
2022-08-26T02:56:48.700Z,23.26
2022-08-26T02:59:15.517Z,23.21
2022-08-26T03:01:42.718Z,23.16
2022-08-26T03:04:11.745Z,23.18
2022-08-26T03:06:40.769Z,23.14
2022-08-26T03:09:08.997Z,23.10
2022-08-26T03:11:40.243Z,23.06
2022-08-26T03:14:08.382Z,23.12
2022-08-26T03:16:36.387Z,23.09
2022-08-26T03:19:09.057Z,22.91
2022-08-26T03:21:38.021Z,23.07
2022-08-26T03:24:05.265Z,23.16
2022-08-26T03:26:36.213Z,23.05
2022-08-26T03:29:22.845Z,23.16
2022-08-26T03:31:49.884Z,23.15
2022-08-26T03:34:18.437Z,23.05
2022-08-26T03:36:46.266Z,23.02
2022-08-26T03:39:13.718Z,23.03
2022-08-26T03:41:41.163Z,23.00
2022-08-26T03:44:10.873Z,22.95
2022-08-26T03:46:39.295Z,22.90
2022-08-26T03:49:08.052Z,22.92
2022-08-26T03:51:38.922Z,22.87
2022-08-26T03:54:06.674Z,22.86
2022-08-26T03:56:36.483Z,22.85
2022-08-26T03:59:04.065Z,22.80
2022-08-26T04:05:51.981Z,22.67
2022-08-26T04:08:19.129Z,22.66
2022-08-26T04:10:45.946Z,22.68
2022-08-26T04:13:12.761Z,22.65
2022-08-26T04:15:39.464Z,22.64
2022-08-26T04:22:46.099Z,22.46
2022-08-26T04:25:13.058Z,22.57
2022-08-26T04:27:44.045Z,22.44
2022-08-26T04:30:11.269Z,22.49
2022-08-26T04:32:38.579Z,22.53
2022-08-26T04:35:06.982Z,22.49
2022-08-26T04:37:35.820Z,22.52
2022-08-26T04:40:02.682Z,22.48
2022-08-26T04:42:33.226Z,22.40
2022-08-26T04:45:01.057Z,22.45
2022-08-26T04:47:32.563Z,22.48
2022-08-26T04:49:59.989Z,22.61
2022-08-26T04:52:26.653Z,22.75
2022-08-26T04:54:54.885Z,22.65
2022-08-26T04:57:23.177Z,22.62
2022-08-26T04:59:50.017Z,22.75
2022-08-26T05:02:16.708Z,22.67
2022-08-26T05:04:43.807Z,22.75
2022-08-26T05:07:10.703Z,22.80
2022-08-26T05:09:40.756Z,22.76
2022-08-26T05:12:07.981Z,22.88
2022-08-26T05:14:36.102Z,22.86
2022-08-26T05:17:03.568Z,22.86
2022-08-26T05:19:31.494Z,22.84
2022-08-26T05:21:59.399Z,22.89
2022-08-26T05:24:26.245Z,22.96
2022-08-26T05:26:54.038Z,22.95
2022-08-26T05:29:23.086Z,22.89
2022-08-26T05:32:18.981Z,22.68
2022-08-26T05:34:45.623Z,22.93
2022-08-26T05:37:13.604Z,22.95
2022-08-26T05:39:41.238Z,23.06
2022-08-26T05:42:10.138Z,23.12
2022-08-26T05:44:54.009Z,23.13
2022-08-26T05:47:23.586Z,23.16
2022-08-26T05:49:51.636Z,23.15
2022-08-26T05:52:19.105Z,23.15
2022-08-26T05:54:45.961Z,23.18
2022-08-26T05:57:14.692Z,23.12
2022-08-26T05:59:41.363Z,23.06
2022-08-26T06:02:09.172Z,23.10
2022-08-26T06:04:35.882Z,23.16
2022-08-26T06:07:05.497Z,23.12
2022-08-26T06:09:36.895Z,23.07
2022-08-26T06:12:05.453Z,23.12
2022-08-26T06:14:32.142Z,23.16
2022-08-26T06:16:58.912Z,23.18
2022-08-26T06:19:25.616Z,23.16
2022-08-26T06:22:22.321Z,23.21
2022-08-26T06:25:09.827Z,23.22
2022-08-26T06:27:37.773Z,23.30
2022-08-26T06:30:04.779Z,23.31
2022-08-26T06:32:31.517Z,23.41
2022-08-26T06:35:03.309Z,23.41
2022-08-26T06:38:47.248Z,23.48
2022-08-26T06:41:17.481Z,23.68
2022-08-26T06:44:35.626Z,23.57
2022-08-26T06:47:29.661Z,23.74
2022-08-26T06:50:47.569Z,23.68
2022-08-26T06:54:11.828Z,23.50
2022-08-26T07:01:11.232Z,23.89
2022-08-26T07:04:32.932Z,23.70
2022-08-26T07:07:04.094Z,23.82
2022-08-26T07:09:35.682Z,23.89
2022-08-26T07:12:04.514Z,23.97
2022-08-26T07:14:31.702Z,24.02
2022-08-26T07:17:49.347Z,24.08
2022-08-26T07:20:16.123Z,24.23
2022-08-26T07:22:43.795Z,24.34
2022-08-26T07:25:11.345Z,24.45
2022-08-26T07:27:38.626Z,24.46
2022-08-26T07:30:06.761Z,24.50
2022-08-26T07:32:33.586Z,24.52
2022-08-26T07:35:00.523Z,24.54
2022-08-26T07:37:27.212Z,24.55
2022-08-26T07:39:59.376Z,24.56
2022-08-26T07:42:26.623Z,24.60
2022-08-26T07:44:53.772Z,24.67
2022-08-26T07:47:25.613Z,24.72
2022-08-26T07:49:54.419Z,24.79
2022-08-26T07:52:25.936Z,24.86
2022-08-26T07:54:57.991Z,24.89
2022-08-26T07:57:26.145Z,24.94
2022-08-26T07:59:53.929Z,25.05
2022-08-26T08:02:22.810Z,25.10
2022-08-26T08:04:49.516Z,25.12
2022-08-26T08:07:16.275Z,25.17
2022-08-26T08:09:42.951Z,25.24
2022-08-26T08:12:14.206Z,25.29
2022-08-26T08:14:42.087Z,25.34
2022-08-26T08:17:08.962Z,25.41
2022-08-26T08:19:38.983Z,25.44
2022-08-26T08:22:06.874Z,25.49
2022-08-26T08:24:44.740Z,25.53
2022-08-26T08:27:11.395Z,25.52
2022-08-26T08:29:38.757Z,25.58
2022-08-26T08:32:05.605Z,25.59
2022-08-26T08:37:08.736Z,25.64
2022-08-26T08:39:37.598Z,25.66
2022-08-26T08:42:25.707Z,25.59
2022-08-26T08:44:53.174Z,25.66
2022-08-26T08:47:45.273Z,25.59
2022-08-26T08:50:20.822Z,25.65
2022-08-26T08:52:55.095Z,25.71
2022-08-26T08:55:22.609Z,25.76
2022-08-26T08:58:04.996Z,25.77
2022-08-26T09:00:44.950Z,25.72
2022-08-26T09:03:23.524Z,25.80
2022-08-26T09:05:53.246Z,25.90
2022-08-26T09:08:27.344Z,25.96
2022-08-26T09:10:57.856Z,25.98
2022-08-26T09:13:27.161Z,26.05
2022-08-26T09:16:19.193Z,26.01
2022-08-26T09:18:56.346Z,25.95
2022-08-26T09:21:25.131Z,26.13
2022-08-26T09:23:55.312Z,26.20
2022-08-26T09:26:40.850Z,26.24
2022-08-26T09:31:52.229Z,26.35
2022-08-26T09:34:24.805Z,26.40
2022-08-26T09:36:54.123Z,26.41
2022-08-26T09:39:28.187Z,26.42
2022-08-26T09:42:11.299Z,26.40
2022-08-26T09:45:08.362Z,26.42
2022-08-26T09:47:52.443Z,26.54
2022-08-26T09:50:29.993Z,26.45
2022-08-26T09:53:12.633Z,26.59
2022-08-26T09:55:42.522Z,26.71
2022-08-26T09:58:16.462Z,26.75
2022-08-26T10:00:57.590Z,26.75
2022-08-26T10:03:32.580Z,26.83
2022-08-26T10:06:04.405Z,26.90
2022-08-26T10:08:31.062Z,26.95
2022-08-26T10:10:59.855Z,27.02
2022-08-26T10:13:33.632Z,27.05
2022-08-26T10:16:06.153Z,27.10
2022-08-26T10:18:41.825Z,27.15
2022-08-26T10:21:22.075Z,27.15
2022-08-26T10:23:51.812Z,27.12
2022-08-26T10:26:31.018Z,27.09
2022-08-26T10:29:06.836Z,27.16
2022-08-26T10:31:40.686Z,27.21
2022-08-26T10:34:08.581Z,27.28
2022-08-26T10:39:58.537Z,27.35
2022-08-26T10:42:33.034Z,27.40
2022-08-26T10:45:05.545Z,27.44
2022-08-26T10:48:05.334Z,27.41
2022-08-26T10:50:35.516Z,27.41
2022-08-26T10:53:11.581Z,27.35
2022-08-26T10:55:50.897Z,27.32
2022-08-26T10:58:56.269Z,27.27
2022-08-26T11:01:45.409Z,27.23
2022-08-26T11:04:27.281Z,27.16
2022-08-26T11:07:32.247Z,26.90
2022-08-26T11:10:01.422Z,26.65
2022-08-26T11:12:37.501Z,26.48
2022-08-26T11:15:08.727Z,26.41
2022-08-26T11:17:44.371Z,26.33
2022-08-26T11:20:28.437Z,26.27
2022-08-26T11:22:56.325Z,26.32
2022-08-26T11:25:30.000Z,26.30
2022-08-26T11:27:59.585Z,26.24
2022-08-26T11:30:36.819Z,26.10
2022-08-26T11:33:03.593Z,26.03
2022-08-26T11:35:34.121Z,25.89
2022-08-26T11:38:18.371Z,25.55
2022-08-26T11:40:45.119Z,25.66
2022-08-26T11:43:20.465Z,25.61
2022-08-26T11:46:11.202Z,25.32
2022-08-26T11:48:42.755Z,25.31
2022-08-26T11:51:21.870Z,25.09
2022-08-26T11:53:48.674Z,25.14
2022-08-26T11:56:28.794Z,25.01
2022-08-26T11:59:00.391Z,25.01
2022-08-26T12:01:32.562Z,24.84
2022-08-26T12:03:59.896Z,24.87
2022-08-26T12:06:31.648Z,24.81
2022-08-26T12:09:00.477Z,24.78
2022-08-26T12:11:30.947Z,24.81
2022-08-26T12:14:01.770Z,24.73
2022-08-26T12:16:32.552Z,24.62
2022-08-26T12:19:00.012Z,24.65
2022-08-26T12:21:34.611Z,24.51
2022-08-26T12:24:03.341Z,24.53
2022-08-26T12:26:36.099Z,24.46
2022-08-26T12:29:10.778Z,24.56
2022-08-26T12:31:47.879Z,24.59
2022-08-26T12:34:17.567Z,24.59
2022-08-26T12:36:48.453Z,24.59
2022-08-26T12:39:24.060Z,24.51
2022-08-26T12:41:55.691Z,24.57
2022-08-26T12:44:37.615Z,24.61
2022-08-26T12:47:15.931Z,24.74
2022-08-26T12:49:59.912Z,24.67
2022-08-26T12:52:31.421Z,24.80
2022-08-26T12:55:19.657Z,24.70
2022-08-26T12:57:47.411Z,24.79
2022-08-26T13:00:34.862Z,24.82
2022-08-26T13:03:02.037Z,24.87
2022-08-26T13:05:35.406Z,24.91
2022-08-26T13:08:10.422Z,24.89
2022-08-26T13:10:41.083Z,24.96
2022-08-26T13:13:07.916Z,25.08
2022-08-26T13:15:34.739Z,25.14
2022-08-26T13:18:03.077Z,25.24
2022-08-26T13:20:30.598Z,25.36
2022-08-26T13:22:58.778Z,25.39
2022-08-26T13:25:26.255Z,25.46
2022-08-26T13:27:55.163Z,25.50
2022-08-26T13:30:21.988Z,25.52
2022-08-26T13:32:58.981Z,25.53
2022-08-26T13:35:26.091Z,25.57
2022-08-26T13:37:53.769Z,25.64
2022-08-26T13:40:21.567Z,25.72
2022-08-26T13:42:49.793Z,25.77
2022-08-26T13:45:17.141Z,25.83
2022-08-26T13:47:44.534Z,25.90
2022-08-26T13:50:11.169Z,25.92
2022-08-26T13:52:37.845Z,25.98
2022-08-26T13:55:05.223Z,26.04
2022-08-26T13:57:31.952Z,26.08
2022-08-26T13:59:59.352Z,26.13
2022-08-26T14:02:27.386Z,26.15
2022-08-26T14:04:55.176Z,26.16
2022-08-26T14:07:22.417Z,26.22
2022-08-26T14:09:49.101Z,26.25
2022-08-26T14:12:16.439Z,26.30
2022-08-26T14:14:43.446Z,26.31
2022-08-26T14:17:10.098Z,26.35
2022-08-26T14:19:36.784Z,26.35
2022-08-26T14:22:04.050Z,26.37
2022-08-26T14:24:30.887Z,26.37
2022-08-26T14:26:57.705Z,26.40
2022-08-26T14:29:24.433Z,26.41
2022-08-26T14:31:51.116Z,26.45
2022-08-26T14:34:18.745Z,26.49
2022-08-26T14:36:45.431Z,26.54
2022-08-26T14:39:14.223Z,26.57
2022-08-26T14:41:55.013Z,26.56
2022-08-26T14:44:28.285Z,26.66
2022-08-26T14:46:55.462Z,26.71
2022-08-26T14:49:24.314Z,26.73
2022-08-26T14:51:53.549Z,26.77
2022-08-26T14:54:24.074Z,26.78
2022-08-26T14:56:53.909Z,26.82
2022-08-26T14:59:30.206Z,26.82
2022-08-26T15:02:00.370Z,26.86
2022-08-26T15:04:27.487Z,26.90
2022-08-26T15:06:56.202Z,26.90
2022-08-26T15:09:51.915Z,26.87
2022-08-26T15:12:18.575Z,27.02
2022-08-26T15:14:47.309Z,27.12
2022-08-26T15:17:13.976Z,27.14
2022-08-26T15:19:40.636Z,27.20
2022-08-26T15:22:07.277Z,27.28
2022-08-26T15:24:34.052Z,27.18
2022-08-26T15:27:00.731Z,27.14
2022-08-26T15:29:27.404Z,27.17
2022-08-26T15:31:57.206Z,27.15
2022-08-26T15:34:24.414Z,27.17
2022-08-26T15:36:51.065Z,27.21
2022-08-26T15:39:19.062Z,27.23
2022-08-26T15:41:47.514Z,27.25
2022-08-26T15:44:16.064Z,27.25
2022-08-26T15:46:43.228Z,27.21
2022-08-26T15:49:18.139Z,27.23
2022-08-26T15:51:47.941Z,27.23
2022-08-26T15:54:21.121Z,27.20
2022-08-26T15:56:51.886Z,27.22
2022-08-26T15:59:24.494Z,27.21
2022-08-26T16:01:52.473Z,27.22
2022-08-26T16:04:48.877Z,27.13
2022-08-26T16:11:23.051Z,27.14
2022-08-26T16:13:52.624Z,27.12
2022-08-26T16:16:19.578Z,27.12
2022-08-26T16:18:51.069Z,27.05
2022-08-26T16:21:20.717Z,27.06
2022-08-26T16:28:36.720Z,26.98
2022-08-26T16:31:05.154Z,26.99
2022-08-26T16:33:37.807Z,26.96
2022-08-26T16:36:06.898Z,26.97
2022-08-26T16:38:59.565Z,26.85
2022-08-26T16:41:27.174Z,26.74
2022-08-26T16:43:54.341Z,26.90
2022-08-26T16:46:25.798Z,26.87
2022-08-26T16:48:54.736Z,26.88
2022-08-26T16:51:23.929Z,26.84
2022-08-26T16:53:51.776Z,26.84
2022-08-26T16:56:23.218Z,26.84
2022-08-26T16:58:54.624Z,26.82
2022-08-26T17:01:21.786Z,26.84
2022-08-26T17:03:49.757Z,26.85
2022-08-26T17:06:17.180Z,26.85
2022-08-26T17:08:44.133Z,26.84
2022-08-26T17:11:11.683Z,26.84
2022-08-26T17:13:38.990Z,26.85
2022-08-26T17:16:08.337Z,26.84
2022-08-26T17:18:35.683Z,26.83
2022-08-26T17:21:04.917Z,26.82
2022-08-26T17:23:31.962Z,26.80
2022-08-26T17:25:58.700Z,26.75
2022-08-26T17:28:25.482Z,26.71
2022-08-26T17:30:52.443Z,26.70
2022-08-26T17:33:22.021Z,26.67
2022-08-26T17:35:53.551Z,26.60
2022-08-26T17:38:21.303Z,26.59
2022-08-26T17:40:48.029Z,26.54
2022-08-26T17:43:14.707Z,26.51
2022-08-26T17:45:41.877Z,26.48
2022-08-26T17:48:11.169Z,26.44
2022-08-26T17:50:42.442Z,26.38
2022-08-26T17:53:12.705Z,26.40
2022-08-26T17:55:45.772Z,26.35
2022-08-26T17:58:14.628Z,26.31
2022-08-26T18:00:49.403Z,26.28
2022-08-26T18:03:16.831Z,26.20
2022-08-26T18:05:47.498Z,26.02
2022-08-26T18:08:14.212Z,25.94
2022-08-26T18:10:42.411Z,25.89
2022-08-26T18:13:09.330Z,25.82
2022-08-26T18:24:58.791Z,25.35
2022-08-26T18:27:26.464Z,25.33
2022-08-26T18:29:53.354Z,25.30
2022-08-26T18:32:20.296Z,25.23
2022-08-26T18:34:47.029Z,25.21
2022-08-26T18:39:45.586Z,25.18
2022-08-26T18:43:03.933Z,24.92
2022-08-26T18:45:30.762Z,25.07
2022-08-26T18:47:57.477Z,25.10
2022-08-26T18:50:24.278Z,25.10
2022-08-26T18:52:51.126Z,25.06
2022-08-26T18:55:17.825Z,25.05
2022-08-26T18:57:44.550Z,25.04
2022-08-26T19:00:11.908Z,25.09
2022-08-26T19:02:38.676Z,25.12
2022-08-26T19:05:06.683Z,25.10
2022-08-26T19:07:36.565Z,25.04
2022-08-26T19:10:06.566Z,24.99
2022-08-26T19:12:35.314Z,24.98
2022-08-26T19:15:02.577Z,24.91
2022-08-26T19:17:29.321Z,24.91
2022-08-26T19:19:56.244Z,24.85
2022-08-26T19:22:22.903Z,24.76
2022-08-26T19:24:49.610Z,24.80
2022-08-26T19:27:16.314Z,24.77
2022-08-26T19:29:43.065Z,24.73
2022-08-26T19:32:09.941Z,24.66
2022-08-26T19:34:36.674Z,24.65
2022-08-26T19:37:03.484Z,24.61
2022-08-26T19:39:30.209Z,24.53
2022-08-26T19:41:57.284Z,24.50
2022-08-26T19:44:43.110Z,24.47
2022-08-26T19:47:11.821Z,24.43
2022-08-26T19:49:39.146Z,24.32
2022-08-26T19:52:07.070Z,24.32
2022-08-26T19:54:35.141Z,24.36
2022-08-26T19:57:03.355Z,24.37
2022-08-26T19:59:30.153Z,24.33
2022-08-26T20:02:00.612Z,24.38
2022-08-26T20:04:32.293Z,24.34
2022-08-26T20:07:00.867Z,24.46
2022-08-26T20:09:31.297Z,24.43
2022-08-26T20:11:59.006Z,24.44
2022-08-26T20:14:26.607Z,24.48
2022-08-26T20:16:53.824Z,24.47
2022-08-26T20:19:39.328Z,24.41
2022-08-26T20:22:06.333Z,24.42
2022-08-26T20:24:33.379Z,24.39
2022-08-26T20:27:03.248Z,24.38
2022-08-26T20:29:32.942Z,24.24
2022-08-26T20:31:59.615Z,24.26
2022-08-26T20:34:27.252Z,24.24
2022-08-26T20:36:54.060Z,24.20
2022-08-26T20:39:21.493Z,24.24
2022-08-26T20:41:49.004Z,24.19
2022-08-26T20:44:17.714Z,24.20
2022-08-26T20:46:45.013Z,24.15
2022-08-26T20:49:13.124Z,24.09
2022-08-26T20:51:40.822Z,24.11
2022-08-26T20:54:07.564Z,24.04
2022-08-26T20:56:34.921Z,24.08
2022-08-26T20:59:02.271Z,24.07
2022-08-26T21:01:34.274Z,24.02
2022-08-26T21:04:03.874Z,24.02
2022-08-26T21:06:33.775Z,24.07
2022-08-26T21:09:01.682Z,24.00
2022-08-26T21:11:29.184Z,23.97
2022-08-26T21:14:15.962Z,23.89
2022-08-26T21:16:43.401Z,23.92
2022-08-26T21:19:11.796Z,23.89
2022-08-26T21:21:38.641Z,23.88
2022-08-26T21:24:05.721Z,23.91
2022-08-26T21:26:32.861Z,23.88
2022-08-26T21:29:00.806Z,23.91
2022-08-26T21:31:29.741Z,23.95
2022-08-26T21:33:56.657Z,23.90
2022-08-26T21:36:23.473Z,23.91
2022-08-26T21:38:50.112Z,23.89
2022-08-26T21:41:19.481Z,23.88
2022-08-26T21:43:47.213Z,23.92
2022-08-26T21:46:16.278Z,23.87
2022-08-26T21:48:48.828Z,23.90
2022-08-26T21:51:19.679Z,23.89
2022-08-26T21:53:46.507Z,23.87
2022-08-26T21:56:15.742Z,23.87
2022-08-26T21:58:42.791Z,23.91
2022-08-26T22:01:13.306Z,23.84
2022-08-26T22:03:47.568Z,23.80
2022-08-26T22:06:20.125Z,23.72
2022-08-26T22:08:46.959Z,23.73
2022-08-26T22:11:15.454Z,23.75
2022-08-26T22:13:43.176Z,23.79
2022-08-26T22:16:10.485Z,23.79
2022-08-26T22:18:37.760Z,23.74
2022-08-26T22:21:10.042Z,23.65
2022-08-26T22:23:38.083Z,23.71
2022-08-26T22:26:09.329Z,23.65
2022-08-26T22:28:36.992Z,23.66
2022-08-26T22:31:03.738Z,23.63
2022-08-26T22:33:30.396Z,23.72
2022-08-26T22:35:57.193Z,23.68
2022-08-26T22:38:24.050Z,23.72
2022-08-26T22:40:55.912Z,23.72
2022-08-26T22:43:28.538Z,23.58
2022-08-26T22:45:56.993Z,23.24
2022-08-26T22:48:26.355Z,23.66
2022-08-26T22:50:59.982Z,23.65
2022-08-26T22:53:29.153Z,23.70
2022-08-26T22:55:59.730Z,23.69
2022-08-26T22:58:31.044Z,23.62
2022-08-26T23:00:58.020Z,23.69
2022-08-26T23:03:26.590Z,23.66
2022-08-26T23:05:53.599Z,23.62
2022-08-26T23:08:20.366Z,23.64
2022-08-26T23:10:47.798Z,23.57
2022-08-26T23:13:15.364Z,23.54
2022-08-26T23:15:43.213Z,23.52
2022-08-26T23:18:10.375Z,23.51
2022-08-26T23:20:37.974Z,23.48
2022-08-26T23:23:04.895Z,23.45
2022-08-26T23:25:33.105Z,23.38
2022-08-26T23:28:01.008Z,23.43
2022-08-26T23:30:30.427Z,23.31
2022-08-26T23:32:57.426Z,23.35
2022-08-26T23:35:24.385Z,23.32
2022-08-26T23:37:53.284Z,23.30
2022-08-26T23:40:22.118Z,23.31
2022-08-26T23:42:48.870Z,23.27
2022-08-26T23:45:18.281Z,23.23
2022-08-26T23:47:50.402Z,23.18
2022-08-26T23:50:19.090Z,23.24
2022-08-26T23:53:04.318Z,23.29
2022-08-26T23:55:33.935Z,23.24
2022-08-26T23:58:01.941Z,23.25
